sensor_id;sensor_type;location;lat;lon;timestamp;pressure;altitude;pressure_sealevel;temperature
25514;BMP180;48128;54.242;10.280;2024-01-15T00:02:12;98513.00;;;1.80
25514;BMP180;48128;54.242;10.280;2024-01-15T00:04:40;98513.00;;;1.90
25514;BMP180;48128;54.242;10.280;2024-01-15T00:07:07;98518.00;;;1.90
25514;BMP180;48128;54.242;10.280;2024-01-15T00:09:35;98492.00;;;1.90
25514;BMP180;48128;54.242;10.280;2024-01-15T00:12:02;98479.00;;;1.90
25514;BMP180;48128;54.242;10.280;2024-01-15T00:14:29;98483.00;;;1.90
25514;BMP180;48128;54.242;10.280;2024-01-15T00:16:56;98467.00;;;1.90
25514;BMP180;48128;54.242;10.280;2024-01-15T00:19:24;98454.00;;;1.90
25514;BMP180;48128;54.242;10.280;2024-01-15T00:21:51;98455.00;;;1.90
25514;BMP180;48128;54.242;10.280;2024-01-15T00:24:18;98469.00;;;1.90
25514;BMP180;48128;54.242;10.280;2024-01-15T00:26:46;98455.00;;;1.80
25514;BMP180;48128;54.242;10.280;2024-01-15T00:29:13;98463.00;;;1.60
25514;BMP180;48128;54.242;10.280;2024-01-15T00:31:39;98428.00;;;1.60
25514;BMP180;48128;54.242;10.280;2024-01-15T00:34:06;98405.00;;;1.50
25514;BMP180;48128;54.242;10.280;2024-01-15T00:36:34;98405.00;;;1.60
25514;BMP180;48128;54.242;10.280;2024-01-15T00:39:01;98403.00;;;1.60
25514;BMP180;48128;54.242;10.280;2024-01-15T00:41:28;98398.00;;;1.60
25514;BMP180;48128;54.242;10.280;2024-01-15T00:43:55;98389.00;;;1.60
25514;BMP180;48128;54.242;10.280;2024-01-15T00:46:22;98390.00;;;1.60
25514;BMP180;48128;54.242;10.280;2024-01-15T00:48:49;98407.00;;;1.60
25514;BMP180;48128;54.242;10.280;2024-01-15T00:51:16;98408.00;;;1.70
25514;BMP180;48128;54.242;10.280;2024-01-15T00:53:43;98389.00;;;1.70
25514;BMP180;48128;54.242;10.280;2024-01-15T00:56:10;98368.00;;;1.70
25514;BMP180;48128;54.242;10.280;2024-01-15T00:58:37;98389.00;;;1.70
25514;BMP180;48128;54.242;10.280;2024-01-15T01:01:04;98395.00;;;1.70
25514;BMP180;48128;54.242;10.280;2024-01-15T01:03:31;98378.00;;;1.80
25514;BMP180;48128;54.242;10.280;2024-01-15T01:05:58;98386.00;;;1.80
25514;BMP180;48128;54.242;10.280;2024-01-15T01:08:25;98396.00;;;1.80
25514;BMP180;48128;54.242;10.280;2024-01-15T01:10:52;98386.00;;;1.80
25514;BMP180;48128;54.242;10.280;2024-01-15T01:13:18;98391.00;;;1.80
25514;BMP180;48128;54.242;10.280;2024-01-15T01:15:45;98389.00;;;1.80
25514;BMP180;48128;54.242;10.280;2024-01-15T01:18:13;98391.00;;;1.90
25514;BMP180;48128;54.242;10.280;2024-01-15T01:20:40;98379.00;;;1.90
25514;BMP180;48128;54.242;10.280;2024-01-15T01:23:07;98398.00;;;1.90
25514;BMP180;48128;54.242;10.280;2024-01-15T01:25:37;98387.00;;;1.80
25514;BMP180;48128;54.242;10.280;2024-01-15T01:28:04;98381.00;;;1.90
25514;BMP180;48128;54.242;10.280;2024-01-15T01:30:31;98385.00;;;1.90
25514;BMP180;48128;54.242;10.280;2024-01-15T01:32:58;98395.00;;;1.90
25514;BMP180;48128;54.242;10.280;2024-01-15T01:35:25;98386.00;;;1.90
25514;BMP180;48128;54.242;10.280;2024-01-15T01:37:52;98406.00;;;1.90
25514;BMP180;48128;54.242;10.280;2024-01-15T01:40:20;98399.00;;;1.90
25514;BMP180;48128;54.242;10.280;2024-01-15T01:42:47;98413.00;;;1.90
25514;BMP180;48128;54.242;10.280;2024-01-15T01:45:15;98412.00;;;1.80
25514;BMP180;48128;54.242;10.280;2024-01-15T01:47:42;98398.00;;;1.80
25514;BMP180;48128;54.242;10.280;2024-01-15T01:50:09;98405.00;;;1.80
25514;BMP180;48128;54.242;10.280;2024-01-15T01:52:36;98415.00;;;1.70
25514;BMP180;48128;54.242;10.280;2024-01-15T01:55:03;98417.00;;;1.70
25514;BMP180;48128;54.242;10.280;2024-01-15T01:57:31;98425.00;;;1.70
25514;BMP180;48128;54.242;10.280;2024-01-15T01:59:59;98428.00;;;1.70
25514;BMP180;48128;54.242;10.280;2024-01-15T02:02:26;98433.00;;;1.70
25514;BMP180;48128;54.242;10.280;2024-01-15T02:04:53;98439.00;;;1.60
25514;BMP180;48128;54.242;10.280;2024-01-15T02:07:20;98452.00;;;1.70
25514;BMP180;48128;54.242;10.280;2024-01-15T02:09:47;98452.00;;;1.70
25514;BMP180;48128;54.242;10.280;2024-01-15T02:12:14;98441.00;;;1.60
25514;BMP180;48128;54.242;10.280;2024-01-15T02:14:41;98431.00;;;1.60
25514;BMP180;48128;54.242;10.280;2024-01-15T02:17:08;98433.00;;;1.50
25514;BMP180;48128;54.242;10.280;2024-01-15T02:19:35;98452.00;;;1.60
25514;BMP180;48128;54.242;10.280;2024-01-15T02:22:02;98439.00;;;1.50
25514;BMP180;48128;54.242;10.280;2024-01-15T02:24:29;98455.00;;;1.50
25514;BMP180;48128;54.242;10.280;2024-01-15T02:26:56;98454.00;;;1.50
25514;BMP180;48128;54.242;10.280;2024-01-15T02:29:23;98445.00;;;1.50
25514;BMP180;48128;54.242;10.280;2024-01-15T02:31:50;98433.00;;;1.40
25514;BMP180;48128;54.242;10.280;2024-01-15T02:34:17;98431.00;;;1.40
25514;BMP180;48128;54.242;10.280;2024-01-15T02:36:44;98435.00;;;1.40
25514;BMP180;48128;54.242;10.280;2024-01-15T02:39:11;98434.00;;;1.40
25514;BMP180;48128;54.242;10.280;2024-01-15T02:41:38;98431.00;;;1.40
25514;BMP180;48128;54.242;10.280;2024-01-15T02:44:05;98431.00;;;1.50
25514;BMP180;48128;54.242;10.280;2024-01-15T02:46:32;98430.00;;;1.60
25514;BMP180;48128;54.242;10.280;2024-01-15T02:48:59;98440.00;;;1.60
25514;BMP180;48128;54.242;10.280;2024-01-15T02:51:26;98456.00;;;1.70
25514;BMP180;48128;54.242;10.280;2024-01-15T02:53:53;98476.00;;;1.70
25514;BMP180;48128;54.242;10.280;2024-01-15T02:56:19;98450.00;;;1.70
25514;BMP180;48128;54.242;10.280;2024-01-15T02:58:46;98444.00;;;1.70
25514;BMP180;48128;54.242;10.280;2024-01-15T03:01:13;98443.00;;;1.70
25514;BMP180;48128;54.242;10.280;2024-01-15T03:03:40;98441.00;;;1.70
25514;BMP180;48128;54.242;10.280;2024-01-15T03:06:07;98434.00;;;1.70
25514;BMP180;48128;54.242;10.280;2024-01-15T03:08:34;98448.00;;;1.60
25514;BMP180;48128;54.242;10.280;2024-01-15T03:11:02;98415.00;;;1.60
25514;BMP180;48128;54.242;10.280;2024-01-15T03:13:28;98426.00;;;1.60
25514;BMP180;48128;54.242;10.280;2024-01-15T03:15:55;98431.00;;;1.60
25514;BMP180;48128;54.242;10.280;2024-01-15T03:18:22;98444.00;;;1.60
25514;BMP180;48128;54.242;10.280;2024-01-15T03:20:49;98448.00;;;1.60
25514;BMP180;48128;54.242;10.280;2024-01-15T03:23:16;98443.00;;;1.50
25514;BMP180;48128;54.242;10.280;2024-01-15T03:25:43;98443.00;;;1.50
25514;BMP180;48128;54.242;10.280;2024-01-15T03:28:11;98423.00;;;1.40
25514;BMP180;48128;54.242;10.280;2024-01-15T03:30:38;98429.00;;;1.40
25514;BMP180;48128;54.242;10.280;2024-01-15T03:33:05;98414.00;;;1.30
25514;BMP180;48128;54.242;10.280;2024-01-15T03:35:32;98418.00;;;1.30
25514;BMP180;48128;54.242;10.280;2024-01-15T03:37:58;98419.00;;;1.20
25514;BMP180;48128;54.242;10.280;2024-01-15T03:40:25;98434.00;;;1.20
25514;BMP180;48128;54.242;10.280;2024-01-15T03:42:53;98439.00;;;1.20
25514;BMP180;48128;54.242;10.280;2024-01-15T03:45:20;98445.00;;;1.20
25514;BMP180;48128;54.242;10.280;2024-01-15T03:47:47;98441.00;;;1.20
25514;BMP180;48128;54.242;10.280;2024-01-15T03:50:14;98431.00;;;1.20
25514;BMP180;48128;54.242;10.280;2024-01-15T03:52:41;98453.00;;;1.20
25514;BMP180;48128;54.242;10.280;2024-01-15T03:55:08;98444.00;;;1.20
25514;BMP180;48128;54.242;10.280;2024-01-15T03:57:35;98467.00;;;1.20
25514;BMP180;48128;54.242;10.280;2024-01-15T04:00:02;98449.00;;;1.20
25514;BMP180;48128;54.242;10.280;2024-01-15T04:02:30;98469.00;;;1.30
25514;BMP180;48128;54.242;10.280;2024-01-15T04:04:57;98460.00;;;1.30
25514;BMP180;48128;54.242;10.280;2024-01-15T04:07:24;98466.00;;;1.20
25514;BMP180;48128;54.242;10.280;2024-01-15T04:09:51;98471.00;;;1.20
25514;BMP180;48128;54.242;10.280;2024-01-15T04:12:18;98473.00;;;1.20
25514;BMP180;48128;54.242;10.280;2024-01-15T04:14:45;98475.00;;;1.10
25514;BMP180;48128;54.242;10.280;2024-01-15T04:17:11;98480.00;;;1.10
25514;BMP180;48128;54.242;10.280;2024-01-15T04:19:38;98490.00;;;1.20
25514;BMP180;48128;54.242;10.280;2024-01-15T04:22:05;98485.00;;;1.20
25514;BMP180;48128;54.242;10.280;2024-01-15T04:24:32;98498.00;;;1.20
25514;BMP180;48128;54.242;10.280;2024-01-15T04:26:59;98514.00;;;1.30
25514;BMP180;48128;54.242;10.280;2024-01-15T04:29:26;98520.00;;;1.30
25514;BMP180;48128;54.242;10.280;2024-01-15T04:31:53;98512.00;;;1.30
25514;BMP180;48128;54.242;10.280;2024-01-15T04:34:20;98525.00;;;1.30
25514;BMP180;48128;54.242;10.280;2024-01-15T04:36:47;98513.00;;;1.30
25514;BMP180;48128;54.242;10.280;2024-01-15T04:39:14;98531.00;;;1.30
25514;BMP180;48128;54.242;10.280;2024-01-15T04:41:41;98546.00;;;1.40
25514;BMP180;48128;54.242;10.280;2024-01-15T04:44:08;98542.00;;;1.40
25514;BMP180;48128;54.242;10.280;2024-01-15T04:46:35;98546.00;;;1.40
25514;BMP180;48128;54.242;10.280;2024-01-15T04:49:02;98546.00;;;1.40
25514;BMP180;48128;54.242;10.280;2024-01-15T04:51:29;98550.00;;;1.40
25514;BMP180;48128;54.242;10.280;2024-01-15T04:53:56;98548.00;;;1.30
25514;BMP180;48128;54.242;10.280;2024-01-15T04:56:23;98556.00;;;1.30
25514;BMP180;48128;54.242;10.280;2024-01-15T04:58:50;98558.00;;;1.30
25514;BMP180;48128;54.242;10.280;2024-01-15T05:01:17;98568.00;;;1.30
25514;BMP180;48128;54.242;10.280;2024-01-15T05:03:44;98575.00;;;1.30
25514;BMP180;48128;54.242;10.280;2024-01-15T05:06:11;98568.00;;;1.30
25514;BMP180;48128;54.242;10.280;2024-01-15T05:08:38;98557.00;;;1.30
25514;BMP180;48128;54.242;10.280;2024-01-15T05:11:05;98567.00;;;1.30
25514;BMP180;48128;54.242;10.280;2024-01-15T05:13:32;98558.00;;;1.30
25514;BMP180;48128;54.242;10.280;2024-01-15T05:15:59;98570.00;;;1.40
25514;BMP180;48128;54.242;10.280;2024-01-15T05:18:26;98573.00;;;1.40
25514;BMP180;48128;54.242;10.280;2024-01-15T05:20:53;98566.00;;;1.30
25514;BMP180;48128;54.242;10.280;2024-01-15T05:23:20;98581.00;;;1.30
25514;BMP180;48128;54.242;10.280;2024-01-15T05:25:47;98581.00;;;1.30
25514;BMP180;48128;54.242;10.280;2024-01-15T05:28:14;98563.00;;;1.30
25514;BMP180;48128;54.242;10.280;2024-01-15T05:30:41;98572.00;;;1.30
25514;BMP180;48128;54.242;10.280;2024-01-15T05:33:08;98571.00;;;1.30
25514;BMP180;48128;54.242;10.280;2024-01-15T05:35:35;98590.00;;;1.30
25514;BMP180;48128;54.242;10.280;2024-01-15T05:38:03;98582.00;;;1.30
25514;BMP180;48128;54.242;10.280;2024-01-15T05:40:29;98600.00;;;1.30
25514;BMP180;48128;54.242;10.280;2024-01-15T05:42:56;98588.00;;;1.30
25514;BMP180;48128;54.242;10.280;2024-01-15T05:45:23;98599.00;;;1.20
25514;BMP180;48128;54.242;10.280;2024-01-15T05:47:50;98614.00;;;1.20
25514;BMP180;48128;54.242;10.280;2024-01-15T05:50:17;98624.00;;;1.30
25514;BMP180;48128;54.242;10.280;2024-01-15T05:52:44;98610.00;;;1.20
25514;BMP180;48128;54.242;10.280;2024-01-15T05:55:11;98587.00;;;1.20
25514;BMP180;48128;54.242;10.280;2024-01-15T05:57:38;98603.00;;;1.20
25514;BMP180;48128;54.242;10.280;2024-01-15T06:00:05;98602.00;;;1.20
25514;BMP180;48128;54.242;10.280;2024-01-15T06:02:33;98641.00;;;1.20
25514;BMP180;48128;54.242;10.280;2024-01-15T06:05:00;98640.00;;;1.30
25514;BMP180;48128;54.242;10.280;2024-01-15T06:07:28;98647.00;;;1.30
25514;BMP180;48128;54.242;10.280;2024-01-15T06:09:55;98644.00;;;1.30
25514;BMP180;48128;54.242;10.280;2024-01-15T06:12:23;98646.00;;;1.30
25514;BMP180;48128;54.242;10.280;2024-01-15T06:14:50;98657.00;;;1.30
25514;BMP180;48128;54.242;10.280;2024-01-15T06:17:17;98656.00;;;1.30
25514;BMP180;48128;54.242;10.280;2024-01-15T06:19:44;98632.00;;;1.30
25514;BMP180;48128;54.242;10.280;2024-01-15T06:22:11;98635.00;;;1.30
25514;BMP180;48128;54.242;10.280;2024-01-15T06:24:38;98625.00;;;1.20
25514;BMP180;48128;54.242;10.280;2024-01-15T06:27:05;98634.00;;;1.20
25514;BMP180;48128;54.242;10.280;2024-01-15T06:29:32;98650.00;;;1.20
25514;BMP180;48128;54.242;10.280;2024-01-15T06:31:59;98662.00;;;1.20
25514;BMP180;48128;54.242;10.280;2024-01-15T06:34:26;98655.00;;;1.20
25514;BMP180;48128;54.242;10.280;2024-01-15T06:36:52;98647.00;;;1.10
25514;BMP180;48128;54.242;10.280;2024-01-15T06:39:19;98633.00;;;1.10
25514;BMP180;48128;54.242;10.280;2024-01-15T06:41:46;98644.00;;;1.10
25514;BMP180;48128;54.242;10.280;2024-01-15T06:44:13;98622.00;;;1.00
25514;BMP180;48128;54.242;10.280;2024-01-15T06:46:43;98620.00;;;0.90
25514;BMP180;48128;54.242;10.280;2024-01-15T06:49:11;98610.00;;;0.90
25514;BMP180;48128;54.242;10.280;2024-01-15T06:51:38;98612.00;;;0.80
25514;BMP180;48128;54.242;10.280;2024-01-15T06:54:05;98597.00;;;0.80
25514;BMP180;48128;54.242;10.280;2024-01-15T06:56:32;98585.00;;;0.70
25514;BMP180;48128;54.242;10.280;2024-01-15T06:58:59;98612.00;;;0.70
25514;BMP180;48128;54.242;10.280;2024-01-15T07:01:26;98611.00;;;0.80
25514;BMP180;48128;54.242;10.280;2024-01-15T07:03:53;98616.00;;;0.80
25514;BMP180;48128;54.242;10.280;2024-01-15T07:06:20;98624.00;;;0.80
25514;BMP180;48128;54.242;10.280;2024-01-15T07:08:47;98632.00;;;0.80
25514;BMP180;48128;54.242;10.280;2024-01-15T07:11:14;98638.00;;;0.80
25514;BMP180;48128;54.242;10.280;2024-01-15T07:13:41;98638.00;;;0.80
25514;BMP180;48128;54.242;10.280;2024-01-15T07:16:08;98656.00;;;0.80
25514;BMP180;48128;54.242;10.280;2024-01-15T07:18:35;98656.00;;;0.80
25514;BMP180;48128;54.242;10.280;2024-01-15T07:21:02;98649.00;;;0.80
25514;BMP180;48128;54.242;10.280;2024-01-15T07:23:31;98656.00;;;0.90
25514;BMP180;48128;54.242;10.280;2024-01-15T07:25:58;98658.00;;;0.90
25514;BMP180;48128;54.242;10.280;2024-01-15T07:28:25;98669.00;;;0.90
25514;BMP180;48128;54.242;10.280;2024-01-15T07:30:52;98671.00;;;1.00
25514;BMP180;48128;54.242;10.280;2024-01-15T07:33:21;98675.00;;;1.00
25514;BMP180;48128;54.242;10.280;2024-01-15T07:35:48;98668.00;;;1.00
25514;BMP180;48128;54.242;10.280;2024-01-15T07:38:14;98668.00;;;1.00
25514;BMP180;48128;54.242;10.280;2024-01-15T07:40:41;98675.00;;;1.00
25514;BMP180;48128;54.242;10.280;2024-01-15T07:43:08;98670.00;;;1.00
25514;BMP180;48128;54.242;10.280;2024-01-15T07:45:35;98686.00;;;1.00
25514;BMP180;48128;54.242;10.280;2024-01-15T07:48:02;98690.00;;;1.00
25514;BMP180;48128;54.242;10.280;2024-01-15T07:50:30;98677.00;;;1.00
25514;BMP180;48128;54.242;10.280;2024-01-15T07:52:57;98691.00;;;1.00
25514;BMP180;48128;54.242;10.280;2024-01-15T07:55:24;98699.00;;;1.00
25514;BMP180;48128;54.242;10.280;2024-01-15T07:57:51;98697.00;;;0.90
25514;BMP180;48128;54.242;10.280;2024-01-15T08:00:32;98696.00;;;0.90
25514;BMP180;48128;54.242;10.280;2024-01-15T08:02:59;98721.00;;;0.90
25514;BMP180;48128;54.242;10.280;2024-01-15T08:05:26;98705.00;;;0.90
25514;BMP180;48128;54.242;10.280;2024-01-15T08:07:55;98732.00;;;0.90
25514;BMP180;48128;54.242;10.280;2024-01-15T08:10:25;98747.00;;;1.00
25514;BMP180;48128;54.242;10.280;2024-01-15T08:12:51;98751.00;;;0.90
25514;BMP180;48128;54.242;10.280;2024-01-15T08:15:18;98759.00;;;0.90
25514;BMP180;48128;54.242;10.280;2024-01-15T08:17:45;98760.00;;;0.90
25514;BMP180;48128;54.242;10.280;2024-01-15T08:20:12;98771.00;;;0.90
25514;BMP180;48128;54.242;10.280;2024-01-15T08:22:39;98771.00;;;0.90
25514;BMP180;48128;54.242;10.280;2024-01-15T08:25:07;98793.00;;;0.90
25514;BMP180;48128;54.242;10.280;2024-01-15T08:27:34;98787.00;;;0.90
25514;BMP180;48128;54.242;10.280;2024-01-15T08:30:00;98767.00;;;0.90
25514;BMP180;48128;54.242;10.280;2024-01-15T08:32:27;98797.00;;;0.90
25514;BMP180;48128;54.242;10.280;2024-01-15T08:34:55;98787.00;;;0.80
25514;BMP180;48128;54.242;10.280;2024-01-15T08:37:25;98797.00;;;0.80
25514;BMP180;48128;54.242;10.280;2024-01-15T08:39:52;98811.00;;;0.90
25514;BMP180;48128;54.242;10.280;2024-01-15T08:42:19;98822.00;;;0.90
25514;BMP180;48128;54.242;10.280;2024-01-15T08:44:46;98848.00;;;0.90
25514;BMP180;48128;54.242;10.280;2024-01-15T08:47:13;98853.00;;;0.90
25514;BMP180;48128;54.242;10.280;2024-01-15T08:49:40;98863.00;;;0.90
25514;BMP180;48128;54.242;10.280;2024-01-15T08:52:09;98869.00;;;0.90
25514;BMP180;48128;54.242;10.280;2024-01-15T08:54:36;98857.00;;;0.90
25514;BMP180;48128;54.242;10.280;2024-01-15T08:57:03;98856.00;;;0.90
25514;BMP180;48128;54.242;10.280;2024-01-15T08:59:30;98870.00;;;0.90
25514;BMP180;48128;54.242;10.280;2024-01-15T09:01:57;98870.00;;;0.90
25514;BMP180;48128;54.242;10.280;2024-01-15T09:04:24;98869.00;;;0.90
25514;BMP180;48128;54.242;10.280;2024-01-15T09:06:51;98861.00;;;0.80
25514;BMP180;48128;54.242;10.280;2024-01-15T09:09:18;98883.00;;;0.80
25514;BMP180;48128;54.242;10.280;2024-01-15T09:11:45;98875.00;;;0.80
25514;BMP180;48128;54.242;10.280;2024-01-15T09:14:12;98887.00;;;0.80
25514;BMP180;48128;54.242;10.280;2024-01-15T09:16:42;98908.00;;;0.80
25514;BMP180;48128;54.242;10.280;2024-01-15T09:19:09;98908.00;;;0.70
25514;BMP180;48128;54.242;10.280;2024-01-15T09:21:38;98895.00;;;0.70
25514;BMP180;48128;54.242;10.280;2024-01-15T09:24:05;98909.00;;;0.60
25514;BMP180;48128;54.242;10.280;2024-01-15T09:26:32;98918.00;;;0.60
25514;BMP180;48128;54.242;10.280;2024-01-15T09:28:59;98922.00;;;0.60
25514;BMP180;48128;54.242;10.280;2024-01-15T09:31:25;98924.00;;;0.60
25514;BMP180;48128;54.242;10.280;2024-01-15T09:33:53;98939.00;;;0.60
25514;BMP180;48128;54.242;10.280;2024-01-15T09:36:23;98926.00;;;0.60
25514;BMP180;48128;54.242;10.280;2024-01-15T09:38:50;98919.00;;;0.50
25514;BMP180;48128;54.242;10.280;2024-01-15T09:41:17;98934.00;;;0.60
25514;BMP180;48128;54.242;10.280;2024-01-15T09:43:44;98938.00;;;0.60
25514;BMP180;48128;54.242;10.280;2024-01-15T09:46:11;98948.00;;;0.70
25514;BMP180;48128;54.242;10.280;2024-01-15T09:48:39;98953.00;;;0.70
25514;BMP180;48128;54.242;10.280;2024-01-15T09:51:06;98950.00;;;0.70
25514;BMP180;48128;54.242;10.280;2024-01-15T09:53:34;98952.00;;;0.70
25514;BMP180;48128;54.242;10.280;2024-01-15T09:56:03;98963.00;;;0.70
25514;BMP180;48128;54.242;10.280;2024-01-15T09:58:31;98963.00;;;0.70
25514;BMP180;48128;54.242;10.280;2024-01-15T10:00:59;98959.00;;;0.70
25514;BMP180;48128;54.242;10.280;2024-01-15T10:03:31;98966.00;;;0.70
25514;BMP180;48128;54.242;10.280;2024-01-15T10:05:59;98971.00;;;0.80
25514;BMP180;48128;54.242;10.280;2024-01-15T10:08:26;98970.00;;;0.80
25514;BMP180;48128;54.242;10.280;2024-01-15T10:10:53;98983.00;;;0.80
25514;BMP180;48128;54.242;10.280;2024-01-15T10:13:20;98970.00;;;0.80
25514;BMP180;48128;54.242;10.280;2024-01-15T10:15:47;98953.00;;;0.80
25514;BMP180;48128;54.242;10.280;2024-01-15T10:18:15;98966.00;;;0.90
25514;BMP180;48128;54.242;10.280;2024-01-15T10:20:42;98981.00;;;1.00
25514;BMP180;48128;54.242;10.280;2024-01-15T10:23:09;99005.00;;;1.10
25514;BMP180;48128;54.242;10.280;2024-01-15T10:25:36;98987.00;;;1.00
25514;BMP180;48128;54.242;10.280;2024-01-15T10:28:03;99009.00;;;1.10
25514;BMP180;48128;54.242;10.280;2024-01-15T10:30:32;99000.00;;;1.10
25514;BMP180;48128;54.242;10.280;2024-01-15T10:33:03;99018.00;;;1.20
25514;BMP180;48128;54.242;10.280;2024-01-15T10:35:32;99017.00;;;1.20
25514;BMP180;48128;54.242;10.280;2024-01-15T10:38:00;99013.00;;;1.20
25514;BMP180;48128;54.242;10.280;2024-01-15T10:40:27;99003.00;;;1.20
25514;BMP180;48128;54.242;10.280;2024-01-15T10:42:54;98987.00;;;1.20
25514;BMP180;48128;54.242;10.280;2024-01-15T10:45:22;99017.00;;;1.20
25514;BMP180;48128;54.242;10.280;2024-01-15T10:47:48;99028.00;;;1.10
25514;BMP180;48128;54.242;10.280;2024-01-15T10:50:15;99024.00;;;1.10
25514;BMP180;48128;54.242;10.280;2024-01-15T10:52:43;99042.00;;;1.10
25514;BMP180;48128;54.242;10.280;2024-01-15T10:55:10;99044.00;;;1.10
25514;BMP180;48128;54.242;10.280;2024-01-15T10:57:45;99054.00;;;1.10
25514;BMP180;48128;54.242;10.280;2024-01-15T11:00:14;99054.00;;;1.10
25514;BMP180;48128;54.242;10.280;2024-01-15T11:02:42;99075.00;;;1.10
25514;BMP180;48128;54.242;10.280;2024-01-15T11:05:09;99036.00;;;1.10
25514;BMP180;48128;54.242;10.280;2024-01-15T11:07:36;99060.00;;;1.20
25514;BMP180;48128;54.242;10.280;2024-01-15T11:10:06;99063.00;;;1.20
25514;BMP180;48128;54.242;10.280;2024-01-15T11:12:35;99076.00;;;1.20
25514;BMP180;48128;54.242;10.280;2024-01-15T11:15:03;99078.00;;;1.20
25514;BMP180;48128;54.242;10.280;2024-01-15T11:17:58;99039.00;;;1.20
25514;BMP180;48128;54.242;10.280;2024-01-15T11:20:26;99062.00;;;1.20
25514;BMP180;48128;54.242;10.280;2024-01-15T11:22:53;99058.00;;;1.10
25514;BMP180;48128;54.242;10.280;2024-01-15T11:25:20;99070.00;;;1.10
25514;BMP180;48128;54.242;10.280;2024-01-15T11:27:49;99062.00;;;1.00
25514;BMP180;48128;54.242;10.280;2024-01-15T11:30:20;99065.00;;;1.00
25514;BMP180;48128;54.242;10.280;2024-01-15T11:32:51;99072.00;;;1.00
25514;BMP180;48128;54.242;10.280;2024-01-15T11:35:18;99072.00;;;0.90
25514;BMP180;48128;54.242;10.280;2024-01-15T11:42:59;99062.00;;;0.90
25514;BMP180;48128;54.242;10.280;2024-01-15T11:45:26;99070.00;;;1.00
25514;BMP180;48128;54.242;10.280;2024-01-15T11:50:32;99085.00;;;1.40
25514;BMP180;48128;54.242;10.280;2024-01-15T11:53:03;99104.00;;;1.50
25514;BMP180;48128;54.242;10.280;2024-01-15T11:55:40;99115.00;;;1.60
25514;BMP180;48128;54.242;10.280;2024-01-15T11:58:08;99140.00;;;1.70
25514;BMP180;48128;54.242;10.280;2024-01-15T12:00:47;99133.00;;;1.60
25514;BMP180;48128;54.242;10.280;2024-01-15T12:03:16;99103.00;;;1.50
25514;BMP180;48128;54.242;10.280;2024-01-15T12:05:43;99109.00;;;1.40
25514;BMP180;48128;54.242;10.280;2024-01-15T12:08:10;99094.00;;;1.30
25514;BMP180;48128;54.242;10.280;2024-01-15T12:10:38;99091.00;;;1.30
25514;BMP180;48128;54.242;10.280;2024-01-15T12:13:12;99109.00;;;1.30
25514;BMP180;48128;54.242;10.280;2024-01-15T12:15:44;99113.00;;;1.30
25514;BMP180;48128;54.242;10.280;2024-01-15T12:18:13;99108.00;;;1.30
25514;BMP180;48128;54.242;10.280;2024-01-15T12:20:41;99091.00;;;1.30
25514;BMP180;48128;54.242;10.280;2024-01-15T12:23:09;99092.00;;;1.30
25514;BMP180;48128;54.242;10.280;2024-01-15T12:25:39;99084.00;;;1.30
25514;BMP180;48128;54.242;10.280;2024-01-15T12:28:06;99099.00;;;1.30
25514;BMP180;48128;54.242;10.280;2024-01-15T12:30:34;99108.00;;;1.30
25514;BMP180;48128;54.242;10.280;2024-01-15T12:33:05;99082.00;;;1.30
25514;BMP180;48128;54.242;10.280;2024-01-15T12:35:35;99106.00;;;1.20
25514;BMP180;48128;54.242;10.280;2024-01-15T12:38:03;99087.00;;;1.20
25514;BMP180;48128;54.242;10.280;2024-01-15T12:40:31;99097.00;;;1.20
25514;BMP180;48128;54.242;10.280;2024-01-15T12:42:59;99083.00;;;1.20
25514;BMP180;48128;54.242;10.280;2024-01-15T12:45:26;99099.00;;;1.20
25514;BMP180;48128;54.242;10.280;2024-01-15T12:47:53;99092.00;;;1.20
25514;BMP180;48128;54.242;10.280;2024-01-15T12:50:23;99095.00;;;1.20
25514;BMP180;48128;54.242;10.280;2024-01-15T12:52:51;99098.00;;;1.20
25514;BMP180;48128;54.242;10.280;2024-01-15T12:55:18;99094.00;;;1.20
25514;BMP180;48128;54.242;10.280;2024-01-15T12:57:45;99110.00;;;1.20
25514;BMP180;48128;54.242;10.280;2024-01-15T13:00:13;99132.00;;;1.20
25514;BMP180;48128;54.242;10.280;2024-01-15T13:02:41;99098.00;;;1.20
25514;BMP180;48128;54.242;10.280;2024-01-15T13:05:10;99108.00;;;1.20
25514;BMP180;48128;54.242;10.280;2024-01-15T13:07:42;99116.00;;;1.20
25514;BMP180;48128;54.242;10.280;2024-01-15T13:10:10;99123.00;;;1.20
25514;BMP180;48128;54.242;10.280;2024-01-15T13:12:40;99114.00;;;1.20
25514;BMP180;48128;54.242;10.280;2024-01-15T13:15:08;99109.00;;;1.20
25514;BMP180;48128;54.242;10.280;2024-01-15T13:17:41;99127.00;;;1.20
25514;BMP180;48128;54.242;10.280;2024-01-15T13:20:09;99114.00;;;1.20
25514;BMP180;48128;54.242;10.280;2024-01-15T13:22:38;99136.00;;;1.20
25514;BMP180;48128;54.242;10.280;2024-01-15T13:25:07;99112.00;;;1.20
25514;BMP180;48128;54.242;10.280;2024-01-15T13:27:35;99149.00;;;1.20
25514;BMP180;48128;54.242;10.280;2024-01-15T13:30:03;99141.00;;;1.20
25514;BMP180;48128;54.242;10.280;2024-01-15T13:32:31;99154.00;;;1.10
25514;BMP180;48128;54.242;10.280;2024-01-15T13:34:58;99147.00;;;1.00
25514;BMP180;48128;54.242;10.280;2024-01-15T13:37:25;99148.00;;;1.00
25514;BMP180;48128;54.242;10.280;2024-01-15T13:39:52;99119.00;;;1.00
25514;BMP180;48128;54.242;10.280;2024-01-15T13:42:20;99147.00;;;0.90
25514;BMP180;48128;54.242;10.280;2024-01-15T13:44:50;99159.00;;;0.80
25514;BMP180;48128;54.242;10.280;2024-01-15T13:47:17;99143.00;;;0.90
25514;BMP180;48128;54.242;10.280;2024-01-15T13:49:44;99143.00;;;0.90
25514;BMP180;48128;54.242;10.280;2024-01-15T13:52:11;99156.00;;;0.90
25514;BMP180;48128;54.242;10.280;2024-01-15T13:54:39;99143.00;;;0.90
25514;BMP180;48128;54.242;10.280;2024-01-15T13:57:16;99139.00;;;0.90
25514;BMP180;48128;54.242;10.280;2024-01-15T13:59:44;99148.00;;;0.90
25514;BMP180;48128;54.242;10.280;2024-01-15T14:02:11;99164.00;;;0.90
25514;BMP180;48128;54.242;10.280;2024-01-15T14:04:39;99165.00;;;0.90
25514;BMP180;48128;54.242;10.280;2024-01-15T14:11:22;99145.00;;;0.80
25514;BMP180;48128;54.242;10.280;2024-01-15T14:13:50;99147.00;;;0.80
25514;BMP180;48128;54.242;10.280;2024-01-15T14:16:21;99131.00;;;0.80
25514;BMP180;48128;54.242;10.280;2024-01-15T14:19:04;99156.00;;;0.80
25514;BMP180;48128;54.242;10.280;2024-01-15T14:21:34;99150.00;;;0.80
25514;BMP180;48128;54.242;10.280;2024-01-15T14:24:01;99146.00;;;0.80